Time;durP1;ratioP1;P1;durP2;ratioP2;P2;SDS_P1;SDS_P2;PMS_P1;PMS_P2;Temp;Humidity;BMP_temperature;BMP_pressure;BME280_temperature;BME280_humidity;BME280_pressure;Samples;Min_cycle;Max_cycle;Signal;HPM_P1;HPM_P2
2023/08/24 00:02:06;;;;;;;13.85;9.25;;;;;;;26.00;64.12;100352.75;5054948;28;20074;-77
2023/08/24 00:04:32;;;;;;;12.85;10.73;;;;;;;25.66;64.29;100355.50;5054394;28;20056;-78
2023/08/24 00:06:57;;;;;;;13.43;10.32;;;;;;;25.48;65.82;100376.25;5071317;28;20117;-78
2023/08/24 00:09:23;;;;;;;16.30;9.90;;;;;;;25.23;67.80;100356.59;5072166;28;20036;-78
2023/08/24 00:11:49;;;;;;;14.52;9.95;;;;;;;25.03;68.38;100334.19;5054766;28;20033;-79
2023/08/24 00:14:14;;;;;;;14.00;10.00;;;;;;;25.24;67.64;100363.63;5054266;28;20467;-80
2023/08/24 00:16:41;;;;;;;16.42;9.82;;;;;;;25.29;65.84;100354.66;5072375;28;20027;-78
2023/08/24 00:19:07;;;;;;;14.45;10.00;;;;;;;25.43;64.14;100354.31;5072069;28;20039;-77
2023/08/24 00:21:33;;;;;;;19.38;9.70;;;;;;;25.49;64.89;100343.59;5054388;28;20082;-78
2023/08/24 00:23:59;;;;;;;15.65;10.00;;;;;;;25.39;64.50;100344.75;5071408;28;20040;-80
2023/08/24 00:26:25;;;;;;;15.18;10.00;;;;;;;25.19;65.79;100347.88;5072427;28;20111;-75
2023/08/24 00:28:51;;;;;;;15.40;10.13;;;;;;;25.24;67.13;100361.84;5070884;28;20112;-75
2023/08/24 00:31:17;;;;;;;15.20;9.82;;;;;;;25.09;68.08;100347.25;5070764;28;20053;-78
2023/08/24 00:33:42;;;;;;;21.73;11.50;;;;;;;24.92;67.57;100352.09;5070394;28;20033;-73
2023/08/24 00:36:08;;;;;;;24.25;12.63;;;;;;;24.78;65.09;100371.75;5071603;28;20102;-73
2023/08/24 00:38:33;;;;;;;21.80;15.57;;;;;;;24.36;65.96;100369.16;5071410;28;20020;-76
2023/08/24 00:40:59;;;;;;;30.48;19.60;;;;;;;23.62;66.38;100291.59;5071708;28;20027;-74
2023/08/24 00:43:25;;;;;;;31.98;22.45;;;;;;;23.78;67.69;100342.22;5071640;28;20033;-74
2023/08/24 00:45:51;;;;;;;49.20;28.77;;;;;;;23.80;66.25;100337.78;5071758;28;20036;-73
2023/08/24 00:48:19;;;;;;;52.00;30.85;;;;;;;23.69;65.65;100296.69;5071760;28;20021;-77
2023/08/24 00:50:44;;;;;;;51.30;30.55;;;;;;;24.11;65.58;100371.47;5053673;28;20035;-75
2023/08/24 00:53:10;;;;;;;51.78;31.00;;;;;;;23.86;66.65;100342.91;5053196;28;20411;-74
2023/08/24 00:55:36;;;;;;;49.88;30.15;;;;;;;23.33;67.60;100270.16;5071378;28;20078;-76
2023/08/24 00:58:02;;;;;;;45.08;29.42;;;;;;;23.81;66.86;100360.59;5071607;28;20032;-75
2023/08/24 01:00:28;;;;;;;46.22;29.42;;;;;;;23.88;66.69;100346.41;5069968;28;20462;-76
2023/08/24 01:02:54;;;;;;;43.88;27.70;;;;;;;23.98;67.11;100339.22;5069764;28;20043;-76
2023/08/24 01:05:20;;;;;;;34.63;22.33;;;;;;;24.12;66.98;100331.88;5070933;28;20039;-76
2023/08/24 01:07:45;;;;;;;26.05;18.35;;;;;;;24.16;68.40;100330.03;5071115;28;20039;-74
2023/08/24 01:10:12;;;;;;;28.33;18.20;;;;;;;24.25;68.69;100347.44;5070093;28;20029;-73
2023/08/24 01:12:50;;;;;;;27.98;17.38;;;;;;;24.27;70.06;100346.50;5070964;28;20529;-74
2023/08/24 01:15:38;;;;;;;26.33;17.13;;;;;;;24.17;71.65;100350.22;5071070;28;20029;-74
2023/08/24 01:18:10;;;;;;;27.10;16.40;;;;;;;24.16;71.67;100323.00;5069493;28;20403;-74
2023/08/24 01:20:37;;;;;;;20.90;14.00;;;;;;;24.08;70.63;100271.34;5069752;28;20500;-74
2023/08/24 01:23:36;;;;;;;15.75;12.35;;;;;;;24.69;68.70;100321.84;5071206;28;20035;-75
2023/08/24 01:26:09;;;;;;;16.95;13.48;;;;;;;24.81;67.56;100307.47;5052956;28;20078;-75
2023/08/24 01:28:36;;;;;;;17.70;13.02;;;;;;;24.92;66.77;100302.78;5069331;28;20032;-77
2023/08/24 01:31:04;;;;;;;18.73;13.23;;;;;;;25.00;67.60;100314.03;5070897;28;21047;-77
2023/08/24 01:33:30;;;;;;;29.98;13.85;;;;;;;24.96;67.57;100309.72;5070370;28;20074;-76
2023/08/24 01:35:55;;;;;;;38.38;13.23;;;;;;;24.93;68.79;100301.88;5069104;28;20036;-77
2023/08/24 01:38:21;;;;;;;33.22;14.80;;;;;;;24.80;69.57;100306.59;5070479;28;20020;-78
2023/08/24 01:41:23;;;;;;;36.20;13.45;;;;;;;24.70;71.39;100323.56;5052722;28;20040;-75
2023/08/24 01:43:53;;;;;;;24.10;13.60;;;;;;;24.50;71.75;100303.75;5059776;28;20043;-73
2023/08/24 01:46:21;;;;;;;24.33;12.20;;;;;;;24.50;71.58;100293.22;5069354;28;20059;-74
2023/08/24 01:48:47;;;;;;;20.08;10.68;;;;;;;24.67;70.89;100313.06;5070415;28;20117;-73
2023/08/24 01:51:14;;;;;;;15.80;10.63;;;;;;;24.62;70.67;100284.13;5070053;28;20070;-75
2023/08/24 01:53:41;;;;;;;16.48;10.73;;;;;;;24.80;70.76;100293.41;5052357;28;20534;-74
2023/08/24 01:56:15;;;;;;;24.40;11.60;;;;;;;24.33;72.48;100290.94;5052455;28;20024;-76
2023/08/24 01:58:40;;;;;;;17.00;11.95;;;;;;;23.61;75.86;100285.44;5052793;28;20488;-75
2023/08/24 02:01:08;;;;;;;19.38;10.95;;;;;;;23.65;76.09;100310.84;5070459;28;20022;-78
2023/08/24 02:03:33;;;;;;;18.35;11.70;;;;;;;23.64;76.02;100295.91;5070197;28;20029;-76
2023/08/24 02:05:59;;;;;;;19.77;11.35;;;;;;;23.62;76.09;100284.53;5070026;28;20509;-75
2023/08/24 02:08:24;;;;;;;19.98;12.10;;;;;;;23.65;76.22;100289.75;5070240;28;20024;-77
2023/08/24 02:10:50;;;;;;;22.73;15.10;;;;;;;23.45;75.01;100286.63;5070057;28;20024;-75
2023/08/24 02:13:16;;;;;;;25.48;17.23;;;;;;;23.37;73.19;100297.31;5052284;28;20024;-74
2023/08/24 02:15:41;;;;;;;24.33;16.52;;;;;;;23.18;73.90;100296.78;5070250;28;20036;-74
2023/08/24 02:18:07;;;;;;;29.00;16.30;;;;;;;23.00;74.62;100303.22;5052217;28;20376;-75
2023/08/24 02:20:37;;;;;;;32.72;16.63;;;;;;;22.60;74.78;100247.72;5069622;28;20024;-75
2023/08/24 02:23:03;;;;;;;25.77;17.13;;;;;;;22.99;74.00;100285.66;5052237;28;20024;-75
2023/08/24 02:25:29;;;;;;;28.55;15.35;;;;;;;23.27;73.15;100297.47;5068483;28;20029;-75
2023/08/24 02:27:54;;;;;;;24.13;15.40;;;;;;;23.44;72.12;100291.03;5069899;28;20027;-75
2023/08/24 02:30:20;;;;;;;30.00;16.52;;;;;;;23.35;74.70;100297.34;5068356;28;20039;-78
2023/08/24 02:32:45;;;;;;;25.95;16.60;;;;;;;23.09;73.86;100292.50;5069854;28;20017;-74
2023/08/24 02:35:10;;;;;;;30.90;17.63;;;;;;;23.06;73.53;100290.81;5069487;28;20025;-75
2023/08/24 02:37:36;;;;;;;23.20;16.15;;;;;;;23.05;73.53;100286.44;5068676;28;20423;-75
2023/08/24 02:40:03;;;;;;;27.23;16.63;;;;;;;22.86;73.46;100240.28;5051718;28;20476;-76
2023/08/24 02:42:31;;;;;;;30.02;16.77;;;;;;;23.31;73.17;100290.38;5051716;28;20111;-75
2023/08/24 02:44:57;;;;;;;26.45;17.27;;;;;;;23.39;72.85;100298.13;5068353;28;20036;-76
2023/08/24 02:47:22;;;;;;;29.38;17.23;;;;;;;23.32;72.62;100289.50;5076484;28;20032;-76
2023/08/24 02:49:48;;;;;;;31.85;18.42;;;;;;;23.57;72.22;100292.53;5075620;28;20024;-75
2023/08/24 02:52:13;;;;;;;28.25;17.20;;;;;;;23.61;71.26;100277.53;5076416;28;20029;-76
2023/08/24 02:54:38;;;;;;;28.67;17.40;;;;;;;23.23;72.26;100268.63;5057725;28;20043;-76
2023/08/24 02:57:04;;;;;;;27.48;17.30;;;;;;;23.35;71.59;100283.31;5076760;28;20028;-74
2023/08/24 02:59:29;;;;;;;32.30;18.73;;;;;;;23.40;71.31;100286.72;5075800;28;20091;-72
2023/08/24 03:01:55;;;;;;;23.38;18.33;;;;;;;23.39;71.09;100285.84;5058361;28;20097;-74
2023/08/24 03:04:21;;;;;;;28.60;17.80;;;;;;;22.94;74.05;100293.63;5075498;28;20024;-73
2023/08/24 03:06:46;;;;;;;27.15;18.15;;;;;;;22.33;74.57;100243.75;5076477;28;20094;-72
2023/08/24 03:09:12;;;;;;;28.90;18.15;;;;;;;22.55;74.14;100286.38;5075855;28;20020;-74
2023/08/24 03:11:38;;;;;;;27.00;17.85;;;;;;;22.20;74.00;100218.50;5076005;28;20107;-72
2023/08/24 03:14:03;;;;;;;26.33;17.70;;;;;;;22.50;75.51;100303.13;5075810;28;20020;-74
2023/08/24 03:16:29;;;;;;;23.70;18.95;;;;;;;22.39;74.99;100283.13;5058255;28;20064;-73
2023/08/24 03:18:54;;;;;;;29.95;18.60;;;;;;;22.69;73.74;100291.44;5075996;28;20078;-73
2023/08/24 03:21:20;;;;;;;30.48;18.20;;;;;;;22.87;73.67;100295.53;5058296;28;20068;-75
2023/08/24 03:23:45;;;;;;;27.90;15.93;;;;;;;23.06;75.03;100296.06;5075991;28;20512;-74
2023/08/24 03:26:12;;;;;;;23.55;13.57;;;;;;;23.14;76.01;100308.22;5076382;28;20028;-80
2023/08/24 03:28:37;;;;;;;36.60;16.25;;;;;;;23.08;75.25;100285.53;5076050;28;20028;-77
2023/08/24 03:31:02;;;;;;;22.20;13.13;;;;;;;;;;5076512;28;20565;-76
2023/08/24 03:33:28;;;;;;;24.20;14.52;;;;;;;23.27;75.02;100300.13;5075824;28;20044;-76
2023/08/24 03:35:54;;;;;;;24.00;13.07;;;;;;;22.85;75.47;100236.75;5074803;28;20035;-76
2023/08/24 03:38:19;;;;;;;21.73;12.63;;;;;;;23.17;75.72;100300.31;5058212;28;20027;-74
2023/08/24 03:40:45;;;;;;;20.40;12.02;;;;;;;23.13;75.95;100323.19;5076186;28;20052;-74
2023/08/24 03:43:11;;;;;;;21.45;10.82;;;;;;;23.06;75.72;100295.22;5070573;28;20739;-79
2023/08/24 03:45:36;;;;;;;30.05;11.90;;;;;;;23.29;73.71;100325.56;5057622;28;20514;-77
2023/08/24 03:48:02;;;;;;;23.90;11.68;;;;;;;23.16;72.19;100298.59;5055444;28;20113;-76
2023/08/24 03:50:27;;;;;;;24.85;14.00;;;;;;;23.07;71.69;100299.59;5094846;28;20456;-72
2023/08/24 03:52:54;;;;;;;18.60;14.00;;;;;;;22.96;72.53;100323.44;5060452;28;20466;-77
2023/08/24 03:55:20;;;;;;;17.58;13.73;;;;;;;22.80;72.79;100325.47;5096639;28;20031;-79
2023/08/24 03:57:45;;;;;;;19.13;13.90;;;;;;;22.76;72.45;100332.53;5094352;28;20024;-77
2023/08/24 04:00:11;;;;;;;23.63;13.48;;;;;;;22.36;72.61;100279.66;5093474;28;20024;-78
2023/08/24 04:02:43;;;;;;;22.70;13.93;;;;;;;22.76;72.32;100345.69;5092936;28;20032;-76
2023/08/24 04:05:09;;;;;;;25.75;14.02;;;;;;;22.75;72.84;100353.63;5093350;28;20056;-75
2023/08/24 04:07:36;;;;;;;20.30;14.15;;;;;;;22.55;73.28;100327.59;5093167;28;20068;-75
2023/08/24 04:10:04;;;;;;;24.35;14.25;;;;;;;22.55;74.13;100346.88;5093059;28;20031;-76
2023/08/24 04:12:32;;;;;;;23.52;13.63;;;;;;;22.34;73.45;100299.81;5093151;28;20024;-76
2023/08/24 04:14:57;;;;;;;22.25;13.30;;;;;;;22.69;73.20;100338.81;5092807;28;20073;-77
2023/08/24 04:17:23;;;;;;;24.35;13.30;;;;;;;22.73;72.27;100315.91;5093139;28;20118;-75
2023/08/24 04:19:49;;;;;;;21.20;14.05;;;;;;;22.90;72.03;100350.75;5092664;28;20032;-76
2023/08/24 04:22:14;;;;;;;22.65;14.15;;;;;;;22.84;72.50;100342.97;5092829;28;20035;-76
2023/08/24 04:24:40;;;;;;;22.60;13.02;;;;;;;22.94;71.94;100343.66;5092825;28;20016;-78
2023/08/24 04:27:06;;;;;;;23.75;13.93;;;;;;;23.16;70.71;100338.94;5092442;28;20077;-77
2023/08/24 04:29:53;;;;;;;23.67;14.02;;;;;;;23.13;71.71;100343.34;5092508;28;20193;-78
2023/08/24 04:32:19;;;;;;;25.85;12.45;;;;;;;22.66;72.49;100330.94;5049826;28;20836;-76
2023/08/24 04:34:44;;;;;;;20.80;12.95;;;;;;;22.24;73.87;100280.69;5050048;28;20059;-76
2023/08/24 04:37:10;;;;;;;26.48;12.50;;;;;;;22.82;73.26;100346.47;5049956;28;20108;-75
2023/08/24 04:39:35;;;;;;;23.00;13.75;;;;;;;22.90;72.34;100327.06;5049903;28;20045;-76
2023/08/24 04:42:02;;;;;;;29.08;13.82;;;;;;;23.08;71.73;100336.41;5033002;28;20025;-75
2023/08/24 04:44:27;;;;;;;22.40;13.30;;;;;;;23.22;71.30;100345.88;5049609;28;20044;-75
2023/08/24 04:46:53;;;;;;;25.20;13.35;;;;;;;23.26;70.90;100348.44;5049859;28;20044;-77
2023/08/24 04:49:19;;;;;;;20.85;12.30;;;;;;;23.41;70.80;100354.31;5033015;28;20041;-76
2023/08/24 04:51:45;;;;;;;27.10;13.25;;;;;;;23.45;70.64;100361.25;5049840;28;20510;-76
2023/08/24 04:54:10;;;;;;;21.60;12.40;;;;;;;23.32;70.91;100352.72;5032720;28;20041;-76
2023/08/24 04:56:36;;;;;;;19.92;11.98;;;;;;;22.97;71.40;100293.59;5047820;28;20036;-76
2023/08/24 04:59:02;;;;;;;16.80;12.00;;;;;;;23.47;70.75;100361.25;5032711;28;20083;-76
2023/08/24 05:01:30;;;;;;;24.73;14.20;;;;;;;23.68;70.17;100362.63;5049544;28;20462;-77
2023/08/24 05:03:55;;;;;;;24.52;17.75;;;;;;;23.45;69.77;100291.91;5049224;28;20029;-76
2023/08/24 05:06:21;;;;;;;17.35;13.77;;;;;;;23.98;68.85;100362.94;5049422;28;20098;-76
2023/08/24 05:08:47;;;;;;;17.88;13.82;;;;;;;23.77;69.82;100312.34;5048853;28;20040;-76
2023/08/24 05:11:20;;;;;;;31.35;14.25;;;;;;;24.06;70.76;100366.28;5048698;28;20463;-77
2023/08/24 05:13:45;;;;;;;18.75;13.20;;;;;;;23.83;71.48;100364.09;5032419;28;20037;-76
2023/08/24 05:16:13;;;;;;;21.90;13.20;;;;;;;23.88;71.71;100349.91;5049302;28;20558;-77
2023/08/24 05:18:39;;;;;;;18.38;12.45;;;;;;;24.00;71.29;100348.81;5032338;28;20040;-73
2023/08/24 05:21:05;;;;;;;23.55;15.25;;;;;;;24.08;71.18;100338.13;5049193;28;20090;-76
2023/08/24 05:23:34;;;;;;;23.40;14.27;;;;;;;24.30;70.06;100359.63;5085921;28;20044;-75
2023/08/24 05:26:00;;;;;;;17.98;12.32;;;;;;;24.42;68.87;100341.78;5091478;28;20036;-76
2023/08/24 05:28:27;;;;;;;19.73;12.07;;;;;;;24.39;69.50;100364.69;5092085;28;20034;-77
2023/08/24 05:30:54;;;;;;;17.50;11.70;;;;;;;24.41;69.91;100363.78;5090422;28;20135;-75
2023/08/24 05:33:20;;;;;;;21.10;12.18;;;;;;;24.45;69.87;100355.78;5091399;28;20028;-76
2023/08/24 05:35:46;;;;;;;24.42;13.05;;;;;;;24.54;69.17;100345.00;5091436;28;20027;-78
2023/08/24 05:38:12;;;;;;;15.45;11.80;;;;;;;24.73;68.64;100359.59;5091309;28;20551;-74
2023/08/24 05:40:39;;;;;;;18.52;12.65;;;;;;;24.82;68.06;100349.69;5090951;28;20039;-77
2023/08/24 05:43:04;;;;;;;21.13;12.15;;;;;;;24.66;67.67;100299.03;5091361;28;20038;-77
2023/08/24 05:45:30;;;;;;;16.30;11.50;;;;;;;24.68;66.80;100270.78;5091141;28;20107;-74
2023/08/24 05:47:55;;;;;;;19.13;11.77;;;;;;;25.18;66.21;100335.59;5072820;28;20020;-76
2023/08/24 05:50:21;;;;;;;24.60;12.50;;;;;;;25.09;67.22;100349.91;5091379;28;20028;-76
2023/08/24 05:52:47;;;;;;;14.57;11.45;;;;;;;25.16;67.64;100353.22;5091178;28;20788;-76
2023/08/24 05:55:12;;;;;;;20.55;11.55;;;;;;;25.14;67.91;100344.50;5091044;28;20114;-76
2023/08/24 05:57:38;;;;;;;15.63;11.73;;;;;;;25.22;66.68;100354.88;5091049;28;20110;-79
2023/08/24 06:00:25;;;;;;;19.15;12.20;;;;;;;25.38;73.21;100364.16;5091096;28;20039;-79
2023/08/24 06:02:51;;;;;;;15.40;11.63;;;;;;;25.51;72.14;100346.22;5061936;28;20143;-75
2023/08/24 06:05:17;;;;;;;13.50;10.70;;;;;;;25.66;71.77;100351.06;5031538;28;20520;-74
2023/08/24 06:07:45;;;;;;;13.57;11.50;;;;;;;25.83;70.35;100352.38;5048036;28;20041;-76
2023/08/24 06:10:12;;;;;;;17.63;11.63;;;;;;;25.83;69.16;100334.75;5048369;28;20075;-74
2023/08/24 06:12:37;;;;;;;17.45;10.95;;;;;;;26.08;66.49;100357.00;5047989;28;20060;-76
2023/08/24 06:15:04;;;;;;;26.50;12.10;;;;;;;26.25;64.98;100354.69;5048212;28;20539;-78
2023/08/24 06:17:30;;;;;;;14.32;10.98;;;;;;;26.42;64.05;100354.19;5064979;28;20033;-76
2023/08/24 06:19:56;;;;;;;13.10;10.30;;;;;;;26.18;64.83;100284.34;5031400;28;20033;-78
2023/08/24 06:22:21;;;;;;;12.10;10.70;;;;;;;26.58;64.24;100354.59;5047386;28;20044;-75
2023/08/24 06:24:46;;;;;;;15.43;11.07;;;;;;;26.61;64.93;100340.38;5047902;28;20059;-75
2023/08/24 06:27:12;;;;;;;17.13;11.13;;;;;;;26.84;65.25;100358.19;5048036;28;20511;-74
2023/08/24 06:29:37;;;;;;;14.45;11.73;;;;;;;26.91;64.81;100361.53;5031191;28;20049;-74
2023/08/24 06:32:03;;;;;;;14.45;11.52;;;;;;;26.90;66.15;100357.16;5048043;28;20025;-78
2023/08/24 06:34:28;;;;;;;13.20;11.05;;;;;;;26.87;64.75;100360.75;5047592;28;20037;-76
2023/08/24 06:36:54;;;;;;;22.88;11.00;;;;;;;26.75;63.80;100321.44;5047830;28;20504;-76
2023/08/24 06:39:19;;;;;;;17.65;10.73;;;;;;;27.01;64.18;100365.59;5052557;28;20156;-75
2023/08/24 06:41:45;;;;;;;15.07;11.32;;;;;;;27.08;63.00;100361.84;5090516;28;20078;-78
2023/08/24 06:44:11;;;;;;;21.23;10.80;;;;;;;27.13;62.44;100364.34;5090696;28;20089;-76
2023/08/24 06:46:37;;;;;;;17.33;10.90;;;;;;;27.12;62.45;100346.72;5090382;28;20100;-77
2023/08/24 06:49:03;;;;;;;16.40;10.30;;;;;;;27.35;63.77;100361.78;5090345;28;20035;-77
2023/08/24 06:51:29;;;;;;;13.68;9.73;;;;;;;27.44;59.36;100353.56;5090033;28;20027;-77
2023/08/24 06:53:54;;;;;;;11.70;9.80;;;;;;;27.33;60.40;100333.63;5090455;28;20085;-78
2023/08/24 06:56:20;;;;;;;16.55;10.55;;;;;;;27.58;58.62;100368.13;5090804;28;20111;-74
2023/08/24 06:58:47;;;;;;;13.60;10.20;;;;;;;27.56;59.32;100359.34;5090877;28;20460;-75
2023/08/24 07:01:13;;;;;;;13.98;8.50;;;;;;;27.64;59.83;100354.66;5089363;28;20028;-77
2023/08/24 07:03:38;;;;;;;14.73;9.18;;;;;;;27.63;57.77;100355.56;5090091;28;20483;-75
2023/08/24 07:06:12;;;;;;;14.02;8.90;;;;;;;27.77;56.84;100365.69;5090248;28;20031;-77
2023/08/24 07:08:37;;;;;;;14.43;9.05;;;;;;;27.83;56.56;100359.31;5090167;28;20502;-75
2023/08/24 07:11:03;;;;;;;15.13;9.10;;;;;;;27.91;57.90;100350.13;5090769;28;20040;-76
2023/08/24 07:13:29;;;;;;;13.80;10.13;;;;;;;28.05;59.67;100352.28;5090272;28;20403;-73
2023/08/24 07:15:55;;;;;;;15.88;9.82;;;;;;;28.09;58.16;100337.97;5090283;28;20024;-74
2023/08/24 07:18:21;;;;;;;12.90;9.52;;;;;;;28.28;56.58;100361.16;5089890;28;20403;-76
2023/08/24 07:20:47;;;;;;;13.48;8.45;;;;;;;27.73;54.45;100260.63;5090336;28;20024;-78
2023/08/24 07:23:13;;;;;;;12.82;7.97;;;;;;;28.23;54.17;100345.41;5081101;28;20036;-74
2023/08/24 07:25:38;;;;;;;14.27;7.55;;;;;;;28.32;53.96;100351.28;5050215;28;20408;-77
2023/08/24 07:28:04;;;;;;;12.63;7.47;;;;;;;28.07;53.15;100278.78;5063000;28;20484;-79
2023/08/24 07:30:31;;;;;;;12.23;7.72;;;;;;;28.48;52.14;100320.53;5084439;28;20045;-76
2023/08/24 07:32:57;;;;;;;11.10;7.63;;;;;;;28.80;51.03;100337.00;5085452;28;20051;-77
2023/08/24 07:35:24;;;;;;;13.05;7.25;;;;;;;29.01;51.05;100337.91;5072938;28;20495;-74
2023/08/24 07:37:51;;;;;;;12.48;7.47;;;;;;;28.79;51.48;100265.34;5072649;28;20036;-74
2023/08/24 07:40:16;;;;;;;9.05;6.55;;;;;;;29.29;51.17;100335.88;5073371;28;20043;-74
2023/08/24 07:42:50;;;;;;;10.52;6.82;;;;;;;29.28;50.30;100331.47;5073313;28;20459;-73
2023/08/24 07:45:16;;;;;;;9.85;7.15;;;;;;;29.45;49.21;100339.59;5072633;28;20495;-76
2023/08/24 07:47:43;;;;;;;12.10;7.60;;;;;;;29.51;49.77;100323.38;5072345;28;20032;-73
2023/08/24 07:50:10;;;;;;;10.77;8.20;;;;;;;29.72;51.54;100334.00;5072582;28;20501;-77
2023/08/24 07:52:36;;;;;;;11.98;7.18;;;;;;;29.81;48.80;100333.56;5072989;28;20060;-75
2023/08/24 07:55:03;;;;;;;9.88;6.75;;;;;;;29.82;49.95;100331.75;5073022;28;20106;-74
2023/08/24 07:57:31;;;;;;;9.57;6.10;;;;;;;29.72;47.83;100319.81;5072628;28;20025;-75
2023/08/24 07:59:57;;;;;;;10.77;6.72;;;;;;;29.84;48.45;100324.56;5072897;28;20059;-78
2023/08/24 08:02:23;;;;;;;10.48;7.00;;;;;;;29.70;47.60;100298.59;5067809;28;20037;-74
2023/08/24 08:04:48;;;;;;;10.30;6.75;;;;;;;30.02;48.24;100325.56;5065870;28;20024;-76
2023/08/24 08:07:14;;;;;;;8.68;6.90;;;;;;;29.32;48.47;100194.81;5072670;28;20089;-77
2023/08/24 08:09:40;;;;;;;9.25;7.22;;;;;;;29.93;48.29;100308.19;5072792;28;20024;-77
2023/08/24 08:12:05;;;;;;;8.23;6.07;;;;;;;30.06;47.36;100321.81;5072591;28;20111;-77
2023/08/24 08:14:31;;;;;;;7.68;6.72;;;;;;;30.27;45.97;100321.72;5072545;28;20532;-77
2023/08/24 08:16:56;;;;;;;7.00;6.30;;;;;;;30.27;46.03;100301.28;5070968;28;20039;-74
2023/08/24 08:19:22;;;;;;;11.98;6.40;;;;;;;30.38;45.28;100300.78;5054491;28;20036;-73
2023/08/24 08:21:47;;;;;;;8.50;6.93;;;;;;;30.79;48.15;100321.88;5071905;28;20028;-73
2023/08/24 08:24:13;;;;;;;7.53;6.38;;;;;;;30.73;45.48;100302.66;5052445;28;20028;-74
2023/08/24 08:26:38;;;;;;;10.30;6.88;;;;;;;30.90;45.92;100325.81;5072006;28;20111;-76
2023/08/24 08:29:05;;;;;;;10.02;7.13;;;;;;;30.90;45.54;100328.47;5071947;28;20039;-75
2023/08/24 08:31:30;;;;;;;10.18;6.90;;;;;;;30.95;46.71;100315.75;5070470;28;20024;-76
2023/08/24 08:33:56;;;;;;;11.45;6.55;;;;;;;31.10;47.33;100325.66;5043187;28;20032;-73
2023/08/24 08:36:22;;;;;;;8.38;7.47;;;;;;;30.78;44.59;100252.66;5047398;28;20036;-74
2023/08/24 08:38:49;;;;;;;7.82;6.75;;;;;;;31.24;43.52;100306.31;5050459;28;20126;-76
2023/08/24 08:41:15;;;;;;;7.85;6.63;;;;;;;31.52;44.71;100314.66;5038074;28;20497;-74
2023/08/24 08:43:41;;;;;;;9.23;7.05;;;;;;;31.71;42.32;100296.72;5061925;28;20048;-78
2023/08/24 08:46:07;;;;;;;11.88;6.90;;;;;;;31.77;41.81;100306.22;5049322;28;20041;-76
2023/08/24 08:48:36;;;;;;;8.90;6.43;;;;;;;31.97;41.95;100314.94;5046911;28;20043;-77
2023/08/24 08:51:02;;;;;;;;;;;;;;;32.16;42.59;100314.78;5050238;28;20170;-77
2023/08/24 08:53:28;;;;;;;7.90;6.82;;;;;;;32.32;40.70;100301.44;5048812;28;19999;-78
2023/08/24 08:55:57;;;;;;;7.43;6.53;;;;;;;32.10;40.92;100262.56;5049025;28;20033;-79
2023/08/24 08:58:23;;;;;;;;;;;;;;;32.53;40.13;100300.22;5029723;28;20025;-77
2023/08/24 09:00:49;;;;;;;8.18;7.38;;;;;;;32.56;39.86;100299.16;5046323;28;19913;-79
2023/08/24 09:03:19;;;;;;;8.95;7.18;;;;;;;32.52;39.56;100286.94;5036135;28;20025;-76
2023/08/24 09:05:47;;;;;;;10.55;6.47;;;;;;;32.70;39.66;100291.22;5053678;28;20053;-75
2023/08/24 09:08:18;;;;;;;9.70;6.45;;;;;;;32.70;39.66;100283.19;5057657;28;20492;-77
2023/08/24 09:10:44;;;;;;;7.55;6.78;;;;;;;32.76;40.13;100283.81;5050777;28;20131;-77
2023/08/24 09:13:09;;;;;;;13.13;6.78;;;;;;;32.84;39.54;100265.50;5062177;28;20095;-78
2023/08/24 09:15:36;;;;;;;9.55;7.18;;;;;;;32.92;41.60;100267.72;5051623;28;20493;-78
2023/08/24 09:18:03;;;;;;;9.23;6.82;;;;;;;32.95;41.21;100276.44;5051192;28;20021;-77
2023/08/24 09:20:31;;;;;;;9.95;7.13;;;;;;;32.34;45.15;100180.19;5051476;28;20061;-78
2023/08/24 09:22:57;;;;;;;9.77;7.07;;;;;;;32.90;43.68;100275.84;5055500;28;20040;-75
2023/08/24 09:25:27;;;;;;;9.23;6.50;;;;;;;32.80;40.27;100264.84;5064642;28;20043;-75
2023/08/24 09:28:05;;;;;;;7.57;6.78;;;;;;;33.00;38.88;100263.63;5063726;28;20033;-77
2023/08/24 09:30:33;;;;;;;8.60;6.07;;;;;;;33.06;40.00;100259.72;5058349;28;20501;-76
2023/08/24 09:33:13;;;;;;;8.07;7.00;;;;;;;33.33;38.46;100273.25;5054059;28;20028;-79
2023/08/24 09:35:39;;;;;;;7.30;6.47;;;;;;;33.11;37.56;100213.97;5053749;28;20064;-77
2023/08/24 09:38:18;;;;;;;10.15;7.45;;;;;;;33.69;40.44;100265.69;5051609;28;20049;-77
2023/08/24 09:40:51;;;;;;;;;;;;;;;33.79;36.55;100263.28;5052757;28;20403;-77
2023/08/24 09:43:18;;;;;;;9.18;6.93;;;;;;;33.77;39.38;100241.97;5051591;28;19909;-77
2023/08/24 09:45:55;;;;;;;10.38;6.82;;;;;;;33.86;37.03;100238.72;5069512;28;20480;-78
2023/08/24 09:48:22;;;;;;;10.15;6.72;;;;;;;34.10;39.29;100239.91;5051229;28;20029;-78
2023/08/24 09:50:50;;;;;;;10.05;7.18;;;;;;;34.07;36.42;100216.00;5050703;28;20037;-77
2023/08/24 09:53:18;;;;;;;11.73;7.07;;;;;;;34.14;35.60;100220.84;5049474;28;20065;-78
2023/08/24 09:56:08;;;;;;;8.57;6.87;;;;;;;34.13;36.30;100228.97;5051781;28;20028;-79
2023/08/24 09:58:35;;;;;;;10.55;7.28;;;;;;;34.29;35.06;100243.06;5052650;28;20032;-76
2023/08/24 10:01:03;;;;;;;7.82;6.68;;;;;;;34.29;35.20;100240.41;5049267;28;20017;-78
2023/08/24 10:03:32;;;;;;;9.07;6.57;;;;;;;34.44;35.01;100222.47;5052832;28;20052;-76
2023/08/24 10:06:00;;;;;;;9.52;7.03;;;;;;;34.31;34.53;100170.66;5033413;28;20557;-78
2023/08/24 10:08:53;;;;;;;13.77;7.30;;;;;;;34.93;35.76;100228.13;5051523;28;20036;-79
2023/08/24 10:11:26;;;;;;;10.00;6.82;;;;;;;35.07;36.33;100222.69;5007278;28;20442;-73
2023/08/24 10:14:07;;;;;;;7.78;6.45;;;;;;;35.20;34.30;100219.97;5008372;28;20061;-77
2023/08/24 10:16:43;;;;;;;7.40;6.70;;;;;;;35.37;32.29;100210.78;5031850;28;20033;-76
2023/08/24 10:19:10;;;;;;;7.00;6.30;;;;;;;35.33;32.33;100186.91;5026608;28;20120;-77
2023/08/24 10:21:37;;;;;;;20.10;7.03;;;;;;;35.55;36.04;100202.34;5027225;28;20632;-75
2023/08/24 10:24:04;;;;;;;7.72;6.55;;;;;;;35.66;31.68;100206.94;5026874;28;20575;-75
2023/08/24 10:26:32;;;;;;;9.18;6.95;;;;;;;35.63;32.18;100173.13;5007704;28;20037;-76
2023/08/24 10:28:58;;;;;;;10.07;7.28;;;;;;;35.90;31.94;100194.44;5022958;28;20048;-77
2023/08/24 10:31:25;;;;;;;10.07;6.97;;;;;;;35.99;31.18;100194.72;5039005;28;20186;-76
2023/08/24 10:33:52;;;;;;;8.50;6.47;;;;;;;35.95;31.32;100176.16;5047157;28;20037;-79
2023/08/24 10:36:18;;;;;;;12.77;6.90;;;;;;;36.00;31.06;100166.88;5046577;28;20521;-75
2023/08/24 10:38:44;;;;;;;13.00;7.53;;;;;;;35.90;32.72;100183.69;5047362;28;20393;-76
2023/08/24 10:41:14;;;;;;;15.00;7.45;;;;;;;35.69;31.87;100153.00;5047026;28;20138;-74
2023/08/24 10:43:40;;;;;;;10.20;6.68;;;;;;;35.55;33.59;100122.66;5046938;28;20037;-76
2023/08/24 10:46:14;;;;;;;11.93;7.65;;;;;;;35.92;36.91;100184.41;5030307;28;20037;-75
2023/08/24 10:48:40;;;;;;;8.48;7.10;;;;;;;35.70;34.56;100168.16;5045538;28;20157;-77
2023/08/24 10:51:28;;;;;;;8.10;6.95;;;;;;;35.57;33.30;100173.59;5069001;28;20017;-76
2023/08/24 10:53:57;;;;;;;9.00;7.77;;;;;;;35.50;35.20;100145.47;5067153;28;20097;-74
2023/08/24 10:56:31;;;;;;;9.00;7.07;;;;;;;35.70;36.78;100154.72;5069364;28;20029;-75
2023/08/24 10:59:12;;;;;;;8.82;7.28;;;;;;;35.76;34.51;100138.16;5031334;28;20120;-75
2023/08/24 11:01:53;;;;;;;9.18;7.70;;;;;;;35.98;35.19;100144.63;5066865;28;20545;-75
2023/08/24 11:04:20;;;;;;;8.13;6.70;;;;;;;35.99;31.77;100111.41;5067934;28;20572;-75
2023/08/24 11:06:53;;;;;;;9.00;7.00;;;;;;;36.09;35.47;100117.81;5069667;28;20028;-75
2023/08/24 11:09:18;;;;;;;9.48;7.00;;;;;;;35.96;32.73;100069.53;5071938;28;20441;-75
2023/08/24 11:11:59;;;;;;;7.65;6.88;;;;;;;36.44;32.89;100127.72;5054914;28;20037;-76
2023/08/24 11:14:33;;;;;;;13.05;7.00;;;;;;;36.47;30.41;100103.28;5055715;28;20102;-74
2023/08/24 11:17:02;;;;;;;10.13;7.40;;;;;;;36.64;36.76;100114.53;5071883;28;20067;-76